createdAt,value
2023-01-19T00:01:25.498Z,93.48
2023-01-19T00:06:27.240Z,94.66
2023-01-19T00:11:28.701Z,94.87
2023-01-19T00:16:30.206Z,94.92
2023-01-19T00:21:31.724Z,96.26
2023-01-19T00:26:33.291Z,96.50
2023-01-19T00:31:34.899Z,94.92
2023-01-19T00:36:36.538Z,98.18
2023-01-19T00:41:37.954Z,97.19
2023-01-19T00:46:39.489Z,98.60
2023-01-19T00:51:40.988Z,99.49
2023-01-19T00:56:42.485Z,97.21
2023-01-19T01:01:45.249Z,96.79
2023-01-19T01:06:47.785Z,98.29
2023-01-19T01:11:49.260Z,98.40
2023-01-19T01:16:50.834Z,97.99
2023-01-19T01:21:52.349Z,100.00
2023-01-19T01:26:53.929Z,100.00
2023-01-19T01:31:55.459Z,100.00
2023-01-19T01:36:56.933Z,100.00
2023-01-19T01:41:58.359Z,100.00
2023-01-19T01:46:59.939Z,100.00
2023-01-19T01:52:01.625Z,100.00
2023-01-19T01:57:08.238Z,100.00
2023-01-19T02:02:14.689Z,100.00
2023-01-19T02:07:33.282Z,99.55
2023-01-19T02:12:34.922Z,100.00
2023-01-19T02:17:36.482Z,100.00
2023-01-19T02:22:49.876Z,100.00
2023-01-19T02:27:51.738Z,100.00
2023-01-19T02:32:53.285Z,100.00
2023-01-19T02:37:54.844Z,100.00
2023-01-19T02:42:59.659Z,100.00
2023-01-19T02:48:01.760Z,100.00
2023-01-19T02:53:36.735Z,100.00
2023-01-19T02:59:04.318Z,100.00
2023-01-19T03:04:34.419Z,100.00
2023-01-19T03:10:03.583Z,100.00
2023-01-19T03:15:17.166Z,100.00
2023-01-19T03:20:23.199Z,100.00
2023-01-19T03:25:25.781Z,100.00
2023-01-19T03:30:41.925Z,100.00
2023-01-19T03:35:49.669Z,100.00
2023-01-19T03:40:55.844Z,100.00
2023-01-19T03:45:57.583Z,100.00
2023-01-19T03:51:04.140Z,100.00
2023-01-19T03:56:06.758Z,100.00
2023-01-19T04:01:08.784Z,100.00
2023-01-19T04:06:10.765Z,100.00
2023-01-19T04:11:12.281Z,100.00
2023-01-19T04:16:13.907Z,100.00
2023-01-19T04:21:16.034Z,100.00
2023-01-19T04:26:17.489Z,100.00
2023-01-19T04:31:19.007Z,100.00
2023-01-19T04:36:20.461Z,100.00
2023-01-19T04:41:22.057Z,100.00
2023-01-19T04:46:23.615Z,100.00
2023-01-19T04:51:25.149Z,100.00
2023-01-19T04:56:26.742Z,100.00
2023-01-19T05:01:28.303Z,100.00
2023-01-19T05:06:33.935Z,100.00
2023-01-19T05:11:35.919Z,100.00
2023-01-19T05:16:37.568Z,100.00
2023-01-19T05:21:39.413Z,100.00
2023-01-19T05:26:41.425Z,100.00
2023-01-19T05:31:43.053Z,100.00
2023-01-19T05:36:44.807Z,100.00
2023-01-19T05:41:46.356Z,100.00
2023-01-19T05:46:48.167Z,100.00
2023-01-19T05:51:49.646Z,100.00
2023-01-19T05:56:51.213Z,100.00
2023-01-19T06:01:53.443Z,100.00
2023-01-19T06:06:55.274Z,100.00
2023-01-19T06:11:56.676Z,100.00
2023-01-19T06:16:58.192Z,100.00
2023-01-19T06:21:59.574Z,100.00
2023-01-19T06:27:01.144Z,100.00
2023-01-19T06:32:03.025Z,100.00
2023-01-19T06:37:04.457Z,100.00
2023-01-19T06:42:05.908Z,100.00
2023-01-19T06:47:15.617Z,100.00
2023-01-19T06:52:17.672Z,100.00
2023-01-19T06:57:19.155Z,100.00
2023-01-19T07:02:26.346Z,100.00
2023-01-19T07:07:29.828Z,100.00
2023-01-19T07:12:31.267Z,99.96
2023-01-19T07:17:32.899Z,100.00
2023-01-19T07:22:34.330Z,100.00
2023-01-19T07:27:35.740Z,98.80
2023-01-19T07:32:37.173Z,100.00
2023-01-19T07:37:38.650Z,99.99
2023-01-19T07:42:40.163Z,99.71
2023-01-19T07:47:44.273Z,99.88
2023-01-19T07:52:45.729Z,100.00
2023-01-19T07:57:51.429Z,98.42
2023-01-19T08:02:52.913Z,99.21
2023-01-19T08:07:55.450Z,94.61
2023-01-19T08:12:57.739Z,93.78
2023-01-19T08:18:01.519Z,94.13
2023-01-19T08:23:03.947Z,95.64
2023-01-19T08:28:06.900Z,98.17
2023-01-19T08:33:08.415Z,99.11
2023-01-19T08:38:10.750Z,99.05
2023-01-19T08:43:15.205Z,100.00
2023-01-19T08:48:20.125Z,100.00
2023-01-19T08:53:22.477Z,100.00
2023-01-19T08:58:24.319Z,100.00
2023-01-19T09:03:25.900Z,100.00
2023-01-19T09:08:27.513Z,100.00
2023-01-19T09:13:29.321Z,100.00
2023-01-19T09:18:30.778Z,100.00
2023-01-19T09:23:32.792Z,100.00
2023-01-19T09:28:34.441Z,100.00
2023-01-19T09:33:35.999Z,100.00
2023-01-19T09:38:37.518Z,100.00
2023-01-19T09:43:42.763Z,100.00
2023-01-19T09:48:46.482Z,100.00
2023-01-19T09:53:56.794Z,100.00
2023-01-19T09:59:00.005Z,100.00
2023-01-19T10:04:08.949Z,100.00
2023-01-19T10:09:28.232Z,100.00
2023-01-19T10:14:40.214Z,100.00
2023-01-19T10:19:46.999Z,100.00
2023-01-19T10:24:53.628Z,100.00
2023-01-19T10:29:55.887Z,100.00
2023-01-19T10:34:58.613Z,99.14
2023-01-19T10:40:36.321Z,100.00
2023-01-19T10:45:37.780Z,100.00
2023-01-19T10:50:39.481Z,100.00
2023-01-19T10:55:41.064Z,100.00
2023-01-19T11:00:44.219Z,100.00
2023-01-19T11:05:45.899Z,100.00
2023-01-19T11:10:55.461Z,100.00
2023-01-19T11:15:59.594Z,100.00
2023-01-19T11:21:04.212Z,100.00
2023-01-19T11:26:05.925Z,100.00
2023-01-19T11:31:10.486Z,100.00
2023-01-19T11:36:24.726Z,100.00
2023-01-19T11:41:29.152Z,100.00
2023-01-19T11:46:33.886Z,100.00
2023-01-19T11:51:45.604Z,100.00
2023-01-19T11:56:48.681Z,100.00
2023-01-19T12:01:54.482Z,100.00
2023-01-19T12:06:57.374Z,100.00
2023-01-19T12:12:05.486Z,100.00
2023-01-19T12:17:13.684Z,100.00
2023-01-19T12:22:17.610Z,100.00
2023-01-19T12:27:38.435Z,100.00
2023-01-19T12:32:52.398Z,100.00
2023-01-19T12:37:53.932Z,100.00
2023-01-19T12:43:05.691Z,100.00
2023-01-19T12:48:24.445Z,100.00
2023-01-19T12:53:25.935Z,97.50
2023-01-19T12:58:27.515Z,96.18
2023-01-19T13:03:29.050Z,98.49
2023-01-19T13:09:00.436Z,91.76
2023-01-19T13:14:01.848Z,97.04
2023-01-19T13:19:06.281Z,98.65
2023-01-19T13:24:11.931Z,93.82
2023-01-19T13:29:33.875Z,94.24
2023-01-19T13:34:50.277Z,89.08
2023-01-19T13:39:54.776Z,90.96
2023-01-19T13:45:01.011Z,93.50
2023-01-19T13:50:03.156Z,89.34
2023-01-19T13:55:06.035Z,91.95
2023-01-19T14:00:10.665Z,89.96
2023-01-19T14:05:22.606Z,92.95
2023-01-19T14:10:24.137Z,88.00
2023-01-19T14:15:25.715Z,88.93
2023-01-19T14:20:29.259Z,89.24
2023-01-19T14:25:33.064Z,89.69
2023-01-19T14:30:34.544Z,92.31
2023-01-19T14:35:36.112Z,88.60
2023-01-19T14:40:38.052Z,92.45
2023-01-19T14:45:40.317Z,88.48
2023-01-19T14:50:51.169Z,85.84
2023-01-19T14:56:05.572Z,90.03
2023-01-19T15:01:07.192Z,93.42
2023-01-19T15:06:20.310Z,97.02
2023-01-19T15:11:32.472Z,90.74
2023-01-19T15:16:34.537Z,95.33
2023-01-19T15:21:36.216Z,94.76
2023-01-19T15:26:39.618Z,96.13
2023-01-19T15:31:41.136Z,98.16
2023-01-19T15:36:42.726Z,98.07
2023-01-19T15:41:44.467Z,99.19
2023-01-19T15:46:46.023Z,98.77
2023-01-19T15:51:47.877Z,99.27
2023-01-19T15:56:49.640Z,97.72
2023-01-19T16:01:52.101Z,98.78
2023-01-19T16:06:54.142Z,99.29
2023-01-19T16:11:56.445Z,99.85
2023-01-19T16:16:58.569Z,100.00
2023-01-19T16:22:00.239Z,99.54
2023-01-19T16:27:02.001Z,97.62
2023-01-19T16:32:03.853Z,100.00
2023-01-19T16:37:05.765Z,100.00
2023-01-19T16:42:07.250Z,99.84
2023-01-19T16:47:08.754Z,100.00
2023-01-19T16:52:10.826Z,100.00
2023-01-19T16:57:12.338Z,99.25
2023-01-19T17:02:14.099Z,98.85
2023-01-19T17:07:17.591Z,100.00
2023-01-19T17:12:20.843Z,100.00
2023-01-19T17:17:22.379Z,100.00
2023-01-19T17:22:23.865Z,100.00
2023-01-19T17:27:25.751Z,100.00
2023-01-19T17:32:27.144Z,100.00
2023-01-19T17:37:28.589Z,100.00
2023-01-19T17:42:30.082Z,100.00
2023-01-19T17:47:31.568Z,100.00
2023-01-19T17:52:33.056Z,100.00
2023-01-19T17:57:34.582Z,100.00
2023-01-19T18:02:36.231Z,100.00
2023-01-19T18:07:38.084Z,100.00
2023-01-19T18:12:39.613Z,100.00
2023-01-19T18:17:41.031Z,100.00
2023-01-19T18:22:42.437Z,100.00
2023-01-19T18:27:43.947Z,100.00
2023-01-19T18:32:45.414Z,100.00
2023-01-19T18:37:46.820Z,100.00
2023-01-19T18:42:48.242Z,100.00
2023-01-19T18:47:49.745Z,100.00
2023-01-19T18:52:51.262Z,100.00
2023-01-19T18:57:52.709Z,100.00
2023-01-19T19:02:55.370Z,100.00
2023-01-19T19:07:56.909Z,100.00
2023-01-19T19:12:58.750Z,100.00
2023-01-19T19:18:00.460Z,100.00
2023-01-19T19:23:01.970Z,100.00
2023-01-19T19:28:03.988Z,100.00
2023-01-19T19:33:05.555Z,100.00
2023-01-19T19:38:07.075Z,100.00
2023-01-19T19:43:08.542Z,100.00
2023-01-19T19:48:09.986Z,100.00
2023-01-19T19:53:11.546Z,100.00
2023-01-19T19:58:12.955Z,100.00
2023-01-19T20:03:14.529Z,100.00
2023-01-19T20:08:16.045Z,100.00
2023-01-19T20:13:17.582Z,100.00
2023-01-19T20:18:19.059Z,100.00
2023-01-19T20:23:20.532Z,100.00
2023-01-19T20:28:21.992Z,100.00
2023-01-19T20:33:23.421Z,100.00
2023-01-19T20:38:24.899Z,100.00
2023-01-19T20:43:26.312Z,100.00
2023-01-19T20:48:28.045Z,100.00
2023-01-19T20:53:29.867Z,100.00
2023-01-19T20:58:31.613Z,100.00
2023-01-19T21:03:33.095Z,100.00
2023-01-19T21:08:34.986Z,100.00
2023-01-19T21:13:37.155Z,100.00
2023-01-19T21:18:38.737Z,100.00
2023-01-19T21:23:40.214Z,100.00
2023-01-19T21:28:41.752Z,100.00
2023-01-19T21:33:43.315Z,100.00
2023-01-19T21:38:44.905Z,100.00
2023-01-19T21:43:46.637Z,100.00
2023-01-19T21:48:48.201Z,100.00
2023-01-19T21:53:50.352Z,100.00
2023-01-19T21:58:51.845Z,100.00
2023-01-19T22:03:57.012Z,100.00
2023-01-19T22:08:58.822Z,100.00
2023-01-19T22:14:00.317Z,99.26
2023-01-19T22:19:01.946Z,99.66
2023-01-19T22:24:05.368Z,99.68
2023-01-19T22:29:07.252Z,99.24
2023-01-19T22:34:09.044Z,98.96
2023-01-19T22:39:12.514Z,98.47
2023-01-19T22:44:16.382Z,99.43
2023-01-19T22:49:18.370Z,99.17
2023-01-19T22:54:19.859Z,98.84
2023-01-19T22:59:21.306Z,98.90
2023-01-19T23:04:22.723Z,97.90
2023-01-19T23:09:24.149Z,97.62
2023-01-19T23:14:25.742Z,99.07
2023-01-19T23:19:27.238Z,98.21
2023-01-19T23:24:28.695Z,97.93
2023-01-19T23:29:30.273Z,98.14
2023-01-19T23:34:31.701Z,99.01
2023-01-19T23:39:33.228Z,98.51
2023-01-19T23:44:34.660Z,99.45
2023-01-19T23:49:36.168Z,99.99
2023-01-19T23:54:37.596Z,98.96
2023-01-19T23:59:39.088Z,99.19
